createdAt,value
2022-11-20T13:16:14.368Z,0.68
2022-11-20T13:17:11.426Z,0.68
2022-11-20T13:18:11.217Z,0.65
2022-11-20T13:19:11.023Z,0.63
2022-11-20T13:20:11.096Z,0.66
2022-11-20T13:21:10.894Z,0.63
2022-11-20T13:22:10.969Z,0.52
2022-11-20T13:23:10.932Z,0.55
2022-11-20T13:24:10.963Z,0.50
2022-11-20T13:25:16.193Z,0.46
2022-11-20T13:26:12.888Z,0.40
2022-11-20T13:27:10.890Z,0.37
2022-11-20T13:28:10.896Z,0.47
2022-11-20T13:29:10.883Z,0.44
2022-11-20T13:30:10.882Z,0.43
2022-11-20T13:31:10.918Z,0.40
2022-11-20T13:32:10.862Z,0.40
2022-11-20T13:33:10.880Z,0.43
2022-11-20T13:34:10.984Z,0.44
2022-11-20T13:35:10.863Z,0.47
2022-11-20T13:36:10.832Z,0.39
2022-11-20T13:37:10.811Z,0.32
2022-11-20T13:38:10.837Z,0.41
2022-11-20T13:39:10.860Z,0.34
2022-11-20T13:40:11.598Z,0.36
2022-11-20T13:41:10.831Z,0.46
2022-11-20T13:42:10.820Z,0.41
2022-11-20T13:43:10.802Z,0.39
2022-11-20T13:44:10.828Z,0.43
2022-11-20T13:45:10.798Z,0.47
2022-11-20T13:46:10.801Z,0.55
2022-11-20T13:47:10.761Z,0.56
2022-11-20T13:48:10.762Z,0.58
2022-11-20T13:49:10.764Z,0.58
2022-11-20T13:50:10.700Z,0.63
2022-11-20T13:51:10.758Z,0.60
2022-11-20T13:52:10.777Z,0.58
2022-11-20T13:53:10.704Z,0.63
2022-11-20T13:54:10.728Z,0.62
2022-11-20T13:55:10.795Z,0.65
2022-11-20T13:56:10.730Z,0.66
2022-11-20T13:57:10.720Z,0.69
2022-11-20T13:58:10.748Z,0.66
2022-11-20T13:59:14.716Z,0.60
2022-11-20T14:00:11.798Z,0.56
2022-11-20T14:01:10.664Z,0.59
2022-11-20T14:02:10.637Z,0.59
2022-11-20T14:03:10.631Z,0.69
2022-11-20T14:04:10.634Z,0.69
2022-11-20T14:05:10.654Z,0.62
2022-11-20T14:06:10.670Z,0.60
2022-11-20T14:07:10.676Z,0.50
2022-11-20T14:08:10.631Z,0.52
2022-11-20T14:09:10.642Z,0.49
2022-11-20T14:10:10.646Z,0.44
2022-11-20T14:11:10.617Z,0.44
2022-11-20T14:12:11.930Z,0.56
2022-11-20T14:13:10.597Z,0.46
2022-11-20T14:14:10.611Z,0.44
2022-11-20T14:15:10.580Z,0.41
2022-11-20T14:16:10.564Z,0.41
2022-11-20T14:17:10.588Z,0.44
2022-11-20T14:18:10.557Z,0.49
2022-11-20T14:19:10.575Z,0.40
2022-11-20T14:20:10.633Z,0.40
2022-11-20T14:21:10.508Z,0.43
2022-11-20T14:22:11.516Z,0.58
2022-11-20T14:23:10.605Z,0.43
2022-11-20T14:24:10.501Z,0.47
2022-11-20T14:25:11.294Z,0.43
2022-11-20T14:26:10.508Z,0.39
2022-11-20T14:27:10.533Z,0.44
2022-11-20T14:28:10.499Z,0.39
2022-11-20T14:29:10.511Z,0.32
2022-11-20T14:30:10.658Z,0.36
2022-11-20T14:31:10.434Z,0.36
2022-11-20T14:32:10.435Z,0.26
2022-11-20T14:33:10.475Z,0.37
2022-11-20T14:34:10.482Z,0.29
2022-11-20T14:35:10.431Z,0.32
2022-11-20T14:36:10.447Z,0.43
2022-11-20T14:37:15.255Z,0.41
2022-11-20T14:38:12.450Z,0.40
2022-11-20T14:39:10.382Z,0.40
2022-11-20T14:40:10.438Z,0.47
2022-11-20T14:41:10.444Z,0.46
2022-11-20T14:42:10.381Z,0.46
2022-11-20T14:43:10.377Z,0.47
2022-11-20T14:44:10.393Z,0.47
2022-11-20T14:45:10.427Z,0.52
2022-11-20T14:46:10.350Z,0.49
2022-11-20T14:47:10.343Z,0.44
2022-11-20T14:48:10.330Z,0.44
2022-11-20T14:49:10.308Z,0.41
2022-11-20T14:50:10.370Z,0.36
2022-11-20T14:51:10.302Z,0.52
2022-11-20T14:52:10.390Z,0.40
2022-11-20T14:53:10.291Z,0.40
2022-11-20T14:54:10.274Z,0.43
2022-11-20T14:55:10.264Z,0.46
2022-11-20T14:56:10.302Z,0.41
2022-11-20T14:57:10.307Z,0.43
2022-11-20T14:58:10.326Z,0.37
2022-11-20T14:59:10.297Z,0.34
2022-11-20T15:00:10.268Z,0.25
2022-11-20T15:01:10.270Z,0.32
2022-11-20T15:02:10.237Z,0.31
2022-11-20T15:03:10.244Z,0.23
2022-11-20T15:04:10.316Z,0.19
2022-11-20T15:05:10.234Z,0.19
2022-11-20T15:06:10.172Z,0.39
2022-11-20T15:07:10.249Z,0.39
2022-11-20T15:08:10.238Z,0.41
2022-11-20T15:09:10.227Z,0.43
2022-11-20T15:10:10.225Z,0.43
2022-11-20T15:11:10.182Z,0.50
2022-11-20T15:12:10.136Z,0.52
2022-11-20T15:13:12.985Z,0.52
2022-11-20T15:14:11.189Z,0.46
2022-11-20T15:15:10.175Z,0.49
2022-11-20T15:16:10.180Z,0.41
2022-11-20T15:17:10.184Z,0.43
2022-11-20T15:18:10.132Z,0.43
2022-11-20T15:19:10.141Z,0.39
2022-11-20T15:20:10.109Z,0.41
2022-11-20T15:21:10.159Z,0.41
2022-11-20T15:22:10.043Z,0.56
2022-11-20T15:23:10.076Z,0.58
2022-11-20T15:24:10.092Z,0.69
2022-11-20T15:25:10.073Z,0.66
2022-11-20T15:26:10.399Z,0.68
2022-11-20T15:27:10.148Z,0.63
2022-11-20T15:28:10.075Z,0.63
2022-11-20T15:29:09.998Z,0.59
2022-11-20T15:30:10.055Z,0.63
2022-11-20T15:31:10.045Z,0.69
2022-11-20T15:32:13.346Z,0.60
2022-11-20T15:33:11.078Z,0.68
2022-11-20T15:34:10.703Z,0.74
2022-11-20T15:35:09.990Z,0.74
2022-11-20T15:36:10.022Z,0.70
2022-11-20T15:37:10.031Z,0.74
2022-11-20T15:38:10.029Z,0.70
2022-11-20T15:39:10.041Z,0.68
2022-11-20T15:40:09.974Z,0.69
2022-11-20T15:41:10.068Z,0.66
2022-11-20T15:42:10.011Z,0.74
2022-11-20T15:43:13.442Z,0.63
2022-11-20T15:44:10.951Z,0.66
2022-11-20T15:45:09.996Z,0.68
2022-11-20T15:46:10.273Z,0.65
2022-11-20T15:47:09.928Z,0.65
2022-11-20T15:48:10.178Z,0.63
2022-11-20T15:49:11.209Z,0.58
2022-11-20T15:50:09.922Z,0.58
2022-11-20T15:51:09.943Z,0.66
2022-11-20T15:52:09.916Z,0.65
2022-11-20T15:53:09.909Z,0.63
2022-11-20T15:54:09.869Z,0.66
2022-11-20T15:55:10.072Z,0.58
2022-11-20T15:56:11.161Z,0.65
